Time;durP1;ratioP1;P1;durP2;ratioP2;P2;SDS_P1;SDS_P2;PMS_P1;PMS_P2;Temp;Humidity;BMP_temperature;BMP_pressure;BME280_temperature;BME280_humidity;BME280_pressure;Samples;Min_cycle;Max_cycle;Signal;HPM_P1;HPM_P2
2023/10/14 00:01:30;;;;;;;5.57;2.90;;;20.30;77.70;;;20.36;42.83;96597.06;5003215;28;20025;-38
2023/10/14 00:03:56;;;;;;;8.35;2.90;;;20.30;78.60;;;20.43;44.01;96575.97;5001110;28;20096;-38
2023/10/14 00:06:23;;;;;;;5.13;2.58;;;20.30;79.90;;;20.41;44.43;96578.78;5003710;28;20512;-38
2023/10/14 00:11:16;;;;;;;4.28;2.60;;;20.30;80.60;;;20.27;44.61;96584.50;5000086;28;20112;-38
2023/10/14 00:13:48;;;;;;;4.60;2.97;;;20.30;80.90;;;20.19;45.13;96584.38;5004257;28;20040;-37
2023/10/14 00:16:35;;;;;;;4.43;2.97;;;20.20;81.60;;;20.12;45.13;96585.91;5001432;28;20029;-39
2023/10/14 00:19:08;;;;;;;5.43;2.92;;;20.10;82.20;;;20.03;46.20;96584.88;4997899;28;20034;-38
2023/10/14 00:21:34;;;;;;;5.00;2.90;;;20.00;82.90;;;19.90;45.79;96579.75;4998559;28;20298;-38
2023/10/14 00:24:03;;;;;;;3.97;2.40;;;19.90;82.50;;;19.95;46.13;96590.88;4998369;28;20067;-39
2023/10/14 00:26:30;;;;;;;5.65;2.83;;;19.90;82.70;;;19.89;47.00;96583.41;4998231;28;20517;-38
2023/10/14 00:31:49;;;;;;;4.78;2.92;;;19.90;85.30;;;20.02;50.30;96577.81;4995820;28;20937;-37
2023/10/14 00:34:15;;;;;;;10.90;3.35;;;19.90;87.90;;;20.05;51.10;96571.38;5001347;28;20088;-38
2023/10/14 00:36:42;;;;;;;10.57;3.33;;;20.00;89.00;;;20.12;51.42;96565.31;5002399;28;20478;-37
2023/10/14 00:39:23;;;;;;;6.95;3.70;;;20.00;90.00;;;20.16;53.17;96568.56;4999231;28;20354;-37
2023/10/14 00:41:52;;;;;;;6.13;3.55;;;20.10;90.50;;;20.14;53.46;96560.69;5000051;28;20691;-37
2023/10/14 00:44:25;;;;;;;7.13;3.53;;;20.10;90.60;;;20.18;55.14;96547.88;4996000;28;20068;-38
2023/10/14 00:46:53;;;;;;;7.28;3.50;;;20.10;90.90;;;20.10;57.16;96536.97;4999375;28;20029;-38
2023/10/14 00:49:31;;;;;;;4.68;3.33;;;20.10;91.40;;;20.15;57.41;96540.97;4999148;28;20509;-38
2023/10/14 00:52:05;;;;;;;7.07;3.25;;;20.10;91.60;;;20.15;59.03;96542.78;4993093;28;20072;-38
2023/10/14 00:59:48;;;;;;;7.95;4.28;;;20.20;92.30;;;20.25;61.36;96540.97;4995064;28;20042;-37
2023/10/14 01:02:14;;;;;;;6.90;3.50;;;20.20;92.50;;;20.23;61.29;96539.44;4992994;28;20048;-39
2023/10/14 01:04:49;;;;;;;7.25;3.50;;;20.20;92.70;;;20.25;63.11;96548.16;4996966;28;20030;-38
2023/10/14 01:07:15;;;;;;;7.40;3.65;;;20.20;93.00;;;20.24;63.27;96535.75;4996796;28;20038;-38
2023/10/14 01:12:26;;;;;;;5.32;3.85;;;20.20;93.80;;;20.20;66.72;96538.69;4998217;28;20510;-39
2023/10/14 01:14:53;;;;;;;6.32;4.10;;;20.20;94.00;;;20.13;68.97;96529.53;4995353;28;20086;-40
2023/10/14 01:17:30;;;;;;;8.35;4.22;;;20.10;94.30;;;20.06;72.28;96533.72;4995955;28;20033;-38
2023/10/14 01:23:00;;;;;;;9.32;4.47;;;19.90;95.80;;;19.84;79.67;96532.97;4996624;28;20045;-37
2023/10/14 01:25:31;;;;;;;10.35;5.20;;;19.90;96.60;;;19.68;83.51;96529.91;4992233;28;20063;-38
2023/10/14 01:27:59;;;;;;;7.85;4.50;;;19.70;97.30;;;19.63;84.09;96529.47;4996425;28;20036;-38
2023/10/14 01:30:38;;;;;;;6.30;4.55;;;19.60;97.50;;;19.51;88.32;96526.06;4990202;28;20121;-37
2023/10/14 01:33:16;;;;;;;9.45;4.72;;;19.50;98.20;;;19.40;89.61;96542.19;5000730;28;20029;-38
2023/10/14 01:35:51;;;;;;;7.20;4.25;;;19.40;98.50;;;19.35;91.36;96539.06;4999652;28;20025;-38
2023/10/14 01:38:17;;;;;;;7.22;4.68;;;19.30;98.90;;;19.26;91.75;96538.88;5002228;28;20064;-38
2023/10/14 01:40:49;;;;;;;8.02;4.32;;;19.30;99.10;;;19.20;93.01;96530.50;5004084;28;20029;-38
2023/10/14 01:43:15;;;;;;;7.80;4.73;;;19.20;99.20;;;19.13;94.60;96532.03;5000534;28;20037;-38
2023/10/14 01:48:31;;;;;;;7.70;4.63;;;19.10;99.80;;;19.09;96.27;96528.75;4996160;28;20041;-37
2023/10/14 01:51:03;;;;;;;7.00;4.57;;;19.10;99.90;;;19.03;98.04;96538.16;4995649;28;20577;-37
2023/10/14 01:53:32;;;;;;;12.02;5.53;;;19.00;99.90;;;18.98;99.75;96535.00;4997655;28;20044;-38
2023/10/14 01:56:00;;;;;;;10.93;4.70;;;19.00;99.90;;;18.93;100.00;96541.72;4993677;28;20060;-39
2023/10/14 02:03:44;;;;;;;10.40;4.85;;;18.90;99.90;;;18.82;100.00;96539.97;4983523;28;20025;-38
2023/10/14 02:06:18;;;;;;;8.60;4.47;;;18.80;99.90;;;18.78;100.00;96544.69;4995156;28;20300;-38
2023/10/14 02:08:46;;;;;;;9.00;4.97;;;18.70;99.90;;;18.72;100.00;96526.50;4994294;28;20029;-38
2023/10/14 02:11:12;;;;;;;7.97;4.85;;;18.70;99.90;;;18.70;100.00;96523.13;4997901;28;20572;-37
2023/10/14 02:13:37;;;;;;;7.00;4.32;;;18.70;99.90;;;18.72;100.00;96518.50;4998428;28;20124;-37
2023/10/14 02:16:07;;;;;;;8.23;4.90;;;18.70;99.90;;;18.68;100.00;96517.91;4987944;28;20052;-37
2023/10/14 02:18:37;;;;;;;6.90;4.47;;;18.70;99.90;;;18.65;100.00;96517.31;4996121;28;20034;-38
2023/10/14 02:21:05;;;;;;;10.20;5.28;;;18.70;99.90;;;18.59;100.00;96513.34;4998798;28;20034;-37
2023/10/14 02:23:43;;;;;;;8.75;4.88;;;18.60;99.90;;;18.57;100.00;96509.09;4992493;28;20544;-38
2023/10/14 02:26:16;;;;;;;8.73;5.13;;;18.60;99.90;;;18.55;100.00;96503.88;5001947;28;20477;-37
2023/10/14 02:28:46;;;;;;;8.60;4.70;;;18.60;99.90;;;18.55;100.00;96505.72;5003724;28;20026;-38
2023/10/14 02:31:17;;;;;;;10.75;4.40;;;18.50;99.90;;;18.56;100.00;96497.56;4999418;28;20093;-39
2023/10/14 02:33:47;;;;;;;15.45;5.38;;;18.60;99.90;;;18.55;100.00;96489.69;4999917;28;20034;-37
2023/10/14 02:36:17;;;;;;;9.93;5.18;;;18.60;99.90;;;18.57;100.00;96485.06;5000085;28;20030;-37
2023/10/14 02:38:45;;;;;;;9.43;5.07;;;18.50;99.90;;;18.56;100.00;96489.56;5004010;28;20517;-37
2023/10/14 02:41:15;;;;;;;7.68;4.88;;;18.60;99.90;;;18.60;100.00;96488.31;5003250;28;20405;-37
2023/10/14 02:43:42;;;;;;;11.73;5.35;;;18.60;99.90;;;18.62;100.00;96482.84;5006588;28;20029;-38
2023/10/14 02:46:11;;;;;;;10.35;4.65;;;18.60;99.90;;;18.61;100.00;96479.34;5003345;28;20037;-37
2023/10/14 02:48:53;;;;;;;7.70;4.90;;;18.60;99.90;;;18.60;100.00;96468.78;4997995;28;20038;-38
2023/10/14 02:51:42;;;;;;;12.13;5.35;;;18.60;99.90;;;18.63;100.00;96471.22;5000731;28;20061;-37
2023/10/14 02:54:15;;;;;;;8.25;5.38;;;18.60;99.90;;;18.59;100.00;96469.75;4999741;28;20562;-38
2023/10/14 02:59:21;;;;;;;8.32;4.90;;;18.50;99.90;;;18.53;100.00;96456.94;5000598;28;20034;-39
2023/10/14 03:09:50;;;;;;;10.98;4.55;;;18.60;99.90;;;18.43;100.00;96447.03;5002135;28;20055;-38
2023/10/14 03:12:18;;;;;;;7.95;4.97;;;18.50;99.90;;;18.55;100.00;96458.50;5002704;28;20417;-39
2023/10/14 03:14:55;;;;;;;7.65;5.00;;;18.50;99.90;;;18.59;100.00;96462.63;4999085;28;20029;-39
2023/10/14 03:17:25;;;;;;;6.95;4.70;;;18.50;99.90;;;18.56;100.00;96462.88;4997467;28;20121;-37
2023/10/14 03:19:54;;;;;;;6.03;4.13;;;18.50;99.90;;;18.54;100.00;96458.63;5001309;28;20037;-37
2023/10/14 03:22:26;;;;;;;9.80;4.63;;;18.50;99.90;;;18.56;100.00;96459.34;5001100;28;20040;-38
2023/10/14 03:24:52;;;;;;;9.77;5.00;;;18.50;99.90;;;18.56;100.00;96452.19;4999709;28;20498;-37
2023/10/14 03:27:19;;;;;;;8.10;4.97;;;18.50;99.90;;;18.59;100.00;96451.94;4998691;28;20041;-38
2023/10/14 03:29:54;;;;;;;8.52;4.68;;;18.60;99.90;;;18.54;100.00;96454.13;4999807;28;20445;-38
2023/10/14 03:32:32;;;;;;;9.93;5.18;;;18.60;99.90;;;18.66;100.00;96458.44;5001826;28;20048;-37
2023/10/14 03:34:59;;;;;;;6.60;4.75;;;18.60;99.90;;;18.64;100.00;96457.69;4995661;28;20037;-37
2023/10/14 03:37:26;;;;;;;7.75;4.95;;;18.60;99.90;;;18.59;100.00;96465.28;4998822;28;20033;-38
2023/10/14 03:42:43;;;;;;;10.55;5.13;;;18.70;99.90;;;18.77;100.00;96460.22;5005757;28;20069;-37
2023/10/14 03:45:20;;;;;;;9.07;5.30;;;18.70;99.90;;;18.79;100.00;96447.56;5002162;28;20029;-39
2023/10/14 03:47:51;;;;;;;9.07;4.28;;;18.80;99.90;;;18.84;100.00;96456.06;5004888;28;20414;-38
2023/10/14 03:50:23;;;;;;;8.20;4.93;;;18.80;99.90;;;18.84;100.00;96456.06;5000156;28;20045;-38
2023/10/14 03:52:53;;;;;;;9.48;4.88;;;18.90;99.90;;;18.86;100.00;96450.56;5002389;28;20038;-38
2023/10/14 03:55:24;;;;;;;8.32;5.32;;;18.90;99.90;;;18.84;100.00;96434.69;5001040;28;20030;-38
2023/10/14 03:57:53;;;;;;;7.75;5.18;;;18.90;99.90;;;18.85;100.00;96433.69;4997561;28;20030;-38
2023/10/14 04:00:37;;;;;;;9.40;5.00;;;18.90;99.90;;;18.85;100.00;96423.03;4999885;28;20109;-37
2023/10/14 04:03:11;;;;;;;10.40;5.07;;;18.90;99.90;;;18.92;100.00;96425.19;4993685;28;20033;-38
2023/10/14 04:05:41;;;;;;;10.60;5.20;;;18.90;99.90;;;18.97;100.00;96436.28;5000576;28;20026;-37
2023/10/14 04:08:08;;;;;;;6.53;4.53;;;18.90;99.90;;;18.91;100.00;96443.00;5001768;28;20108;-37
2023/10/14 04:10:38;;;;;;;8.20;5.20;;;18.90;99.90;;;18.89;100.00;96444.97;5002477;28;20037;-38
2023/10/14 04:13:12;;;;;;;8.38;5.15;;;18.90;99.90;;;18.90;100.00;96454.69;4999063;28;20038;-37
2023/10/14 04:15:52;;;;;;;9.45;5.03;;;18.90;99.90;;;18.89;100.00;96453.00;4999806;28;20041;-37
2023/10/14 04:18:24;;;;;;;11.48;5.38;;;18.90;99.90;;;18.97;100.00;96460.34;4996475;28;20049;-38
2023/10/14 04:21:15;;;;;;;11.85;5.25;;;18.90;99.90;;;18.99;100.00;96464.59;5006392;28;20432;-38
2023/10/14 04:26:25;;;;;;;8.88;5.00;;;19.00;99.90;;;18.98;100.00;96468.22;5006099;28;20398;-37
2023/10/14 04:28:53;;;;;;;7.85;4.50;;;19.00;99.90;;;19.00;100.00;96484.97;5003837;28;20033;-38
2023/10/14 04:31:40;;;;;;;7.57;5.20;;;19.00;99.90;;;18.99;100.00;96509.16;5003426;28;20038;-37
2023/10/14 04:34:10;;;;;;;6.70;4.35;;;19.00;99.90;;;18.78;100.00;96509.97;5004660;28;20060;-39
2023/10/14 04:36:37;;;;;;;15.52;4.78;;;18.80;99.90;;;18.36;100.00;96523.25;5002408;28;20643;-38
2023/10/14 04:39:15;;;;;;;9.57;4.68;;;18.50;99.90;;;17.81;100.00;96549.88;5000158;28;20037;-37
2023/10/14 04:41:55;;;;;;;18.15;5.03;;;18.00;99.90;;;17.43;100.00;96542.25;5003696;28;20137;-37
2023/10/14 04:44:23;;;;;;;9.68;5.20;;;17.50;99.90;;;16.95;100.00;96528.13;5007880;28;20034;-38
2023/10/14 04:47:01;;;;;;;8.18;4.28;;;17.10;99.90;;;16.59;100.00;96529.91;5004587;28;20109;-37
2023/10/14 04:49:37;;;;;;;10.07;4.78;;;16.70;99.90;;;16.13;100.00;96505.88;5005156;28;20033;-37
2023/10/14 04:52:06;;;;;;;13.15;4.68;;;16.40;99.90;;;15.97;100.00;96538.91;5003275;28;20038;-38
2023/10/14 04:54:37;;;;;;;10.05;4.75;;;16.10;99.90;;;15.81;100.00;96535.69;5000276;28;20222;-37
2023/10/14 04:59:53;;;;;;;9.38;4.30;;;15.80;99.90;;;15.58;100.00;96532.81;5003560;28;20150;-38
2023/10/14 05:02:24;;;;;;;8.68;5.28;;;15.70;99.90;;;15.49;100.00;96513.97;4998597;28;20037;-37
2023/10/14 05:04:51;;;;;;;7.50;5.38;;;15.60;99.90;;;15.60;100.00;96538.00;4997753;28;20874;-38
2023/10/14 05:07:19;;;;;;;8.95;4.95;;;15.70;99.90;;;15.65;100.00;96535.88;5004945;28;20112;-37
2023/10/14 05:10:05;;;;;;;7.18;4.45;;;15.70;99.90;;;15.68;100.00;96542.78;5004408;28;20045;-37
2023/10/14 05:12:31;;;;;;;7.07;4.97;;;15.80;99.90;;;15.66;100.00;96541.06;4998967;28;20033;-38
2023/10/14 05:14:57;;;;;;;6.95;4.90;;;15.80;99.90;;;15.68;100.00;96548.94;5003433;28;20040;-38
2023/10/14 05:17:26;;;;;;;6.90;5.03;;;15.80;99.90;;;15.70;100.00;96549.66;5004199;28;20038;-37
2023/10/14 05:19:58;;;;;;;9.73;5.28;;;15.80;99.90;;;15.56;100.00;96537.38;4996858;28;20520;-38
2023/10/14 05:22:24;;;;;;;12.32;4.93;;;15.80;99.90;;;15.69;100.00;96561.28;5000692;28;20076;-37
2023/10/14 05:25:03;;;;;;;6.82;4.63;;;15.80;99.90;;;15.69;100.00;96557.78;4999678;28;20549;-37
2023/10/14 05:27:55;;;;;;;6.55;4.40;;;15.80;99.90;;;15.70;100.00;96560.31;5004938;28;20025;-37
2023/10/14 05:30:21;;;;;;;7.13;4.70;;;15.80;99.90;;;15.70;100.00;96568.28;5002673;28;20025;-37
2023/10/14 05:32:49;;;;;;;10.40;6.13;;;15.80;99.90;;;15.62;100.00;96566.16;5005381;28;20080;-37
2023/10/14 05:35:15;;;;;;;8.50;5.80;;;15.80;99.90;;;15.69;100.00;96579.03;5019255;28;20279;-37
2023/10/14 05:37:45;;;;;;;13.02;5.75;;;15.80;99.90;;;15.71;100.00;96585.09;5003756;28;20120;-37
2023/10/14 05:40:15;;;;;;;9.63;5.20;;;15.80;99.90;;;15.72;100.00;96586.78;5001524;28;20034;-37
2023/10/14 05:42:43;;;;;;;9.40;5.53;;;15.80;99.90;;;15.72;100.00;96594.75;5003978;28;20139;-38
2023/10/14 05:45:11;;;;;;;8.63;5.45;;;15.80;99.90;;;15.72;100.00;96592.09;4998951;28;20038;-38
2023/10/14 05:47:39;;;;;;;9.60;5.15;;;15.80;99.90;;;15.71;100.00;96587.75;4998308;28;20041;-37
2023/10/14 05:50:08;;;;;;;8.55;5.28;;;15.80;99.90;;;15.70;100.00;96596.66;5003095;28;20040;-37
2023/10/14 05:52:34;;;;;;;11.98;5.35;;;15.80;99.90;;;15.56;100.00;96571.06;5003185;28;20045;-37
2023/10/14 05:55:01;;;;;;;9.90;5.00;;;15.70;99.90;;;15.63;100.00;96598.91;5001700;28;20200;-37
2023/10/14 05:57:29;;;;;;;9.35;5.47;;;15.70;99.90;;;15.68;100.00;96607.41;4999107;28;20045;-37
2023/10/14 05:59:57;;;;;;;13.68;6.07;;;15.70;99.90;;;15.66;100.00;96609.31;4995916;28;20490;-37
2023/10/14 06:02:23;;;;;;;15.55;6.43;;;15.80;99.90;;;15.60;100.00;96612.44;4995176;28;20757;-37
2023/10/14 06:04:50;;;;;;;12.85;5.32;;;15.70;99.90;;;15.63;100.00;96617.50;4993176;28;20026;-37
2023/10/14 06:07:18;;;;;;;9.68;5.25;;;15.80;99.90;;;15.60;100.00;96609.75;4986208;28;20087;-37
2023/10/14 06:09:45;;;;;;;11.02;5.03;;;15.70;99.90;;;15.56;100.00;96629.53;4992160;28;20022;-37
2023/10/14 06:12:16;;;;;;;11.32;5.43;;;15.70;99.90;;;15.44;100.00;96609.97;4990651;28;20060;-37
2023/10/14 06:14:44;;;;;;;7.80;4.85;;;15.70;99.90;;;15.49;100.00;96617.63;4991759;28;20029;-37
2023/10/14 06:17:11;;;;;;;7.18;4.40;;;15.60;99.90;;;15.42;100.00;96619.88;4987526;28;20452;-37
2023/10/14 06:19:37;;;;;;;9.50;4.57;;;15.60;99.90;;;15.39;100.00;96620.06;4989076;28;20030;-37
2023/10/14 06:22:03;;;;;;;9.68;4.75;;;15.60;99.90;;;15.48;100.00;96632.72;4982396;28;20453;-37
2023/10/14 06:24:29;;;;;;;8.95;4.70;;;15.60;99.90;;;15.51;100.00;96642.28;4997655;28;20056;-37
2023/10/14 06:27:07;;;;;;;8.02;4.18;;;15.70;99.90;;;15.56;100.00;96645.47;5000263;28;20405;-37
2023/10/14 06:29:37;;;;;;;8.88;4.20;;;15.70;99.90;;;15.53;100.00;96643.03;4998427;28;20505;-37
2023/10/14 06:32:04;;;;;;;7.00;3.95;;;15.70;99.90;;;15.56;100.00;96645.47;5002931;28;20096;-37
2023/10/14 06:34:34;;;;;;;7.18;3.63;;;15.80;99.90;;;15.65;100.00;96653.66;5001578;28;20049;-37
2023/10/14 06:37:02;;;;;;;7.80;3.85;;;15.80;99.90;;;15.66;100.00;96658.00;4997504;28;20410;-38
2023/10/14 06:39:28;;;;;;;9.50;4.10;;;15.80;99.90;;;15.71;100.00;96678.13;5004870;28;20038;-37
2023/10/14 06:41:55;;;;;;;9.32;4.03;;;15.90;99.90;;;15.73;100.00;96670.88;5005025;28;20087;-39
2023/10/14 06:44:27;;;;;;;9.13;3.50;;;15.90;99.90;;;15.71;100.00;96683.44;5001321;28;20065;-37
2023/10/14 06:46:53;;;;;;;10.27;3.70;;;15.90;99.90;;;15.73;100.00;96679.72;5001415;28;20084;-38
2023/10/14 06:49:22;;;;;;;6.45;3.10;;;15.90;99.90;;;15.72;100.00;96667.38;5005531;28;20077;-38
2023/10/14 06:51:51;;;;;;;6.95;3.47;;;15.90;99.90;;;15.84;100.00;96689.63;4998560;28;20157;-38
2023/10/14 06:54:25;;;;;;;6.50;2.90;;;16.00;99.90;;;15.86;100.00;96679.72;5003399;28;21389;-39
2023/10/14 06:56:53;;;;;;;6.65;2.90;;;16.00;99.90;;;15.91;100.00;96687.41;5000019;28;20399;-39
2023/10/14 06:59:19;;;;;;;6.85;2.40;;;16.10;99.90;;;15.95;100.00;96683.56;5002930;28;20030;-40
2023/10/14 07:01:45;;;;;;;7.47;2.67;;;16.10;99.90;;;16.00;100.00;96681.44;5004172;28;20083;-38
2023/10/14 07:04:16;;;;;;;6.78;2.92;;;16.20;99.90;;;16.03;100.00;96682.06;4998477;28;20037;-38
2023/10/14 07:06:47;;;;;;;7.80;3.13;;;16.20;99.90;;;16.18;100.00;96690.75;5002293;28;20382;-40
2023/10/14 07:09:20;;;;;;;6.47;2.90;;;16.40;99.90;;;16.28;100.00;96690.13;5006738;28;20292;-38
2023/10/14 07:11:47;;;;;;;7.43;2.50;;;16.40;99.90;;;16.32;100.00;96688.94;5009960;28;20022;-38
2023/10/14 07:14:13;;;;;;;6.40;2.60;;;16.60;99.90;;;16.44;100.00;96692.53;5001955;28;20498;-36
2023/10/14 07:16:40;;;;;;;4.90;2.60;;;16.60;99.90;;;16.58;100.00;96693.25;4998158;28;20032;-38
2023/10/14 07:19:06;;;;;;;6.45;2.42;;;16.80;99.90;;;16.71;100.00;96698.53;5007982;28;20041;-39
2023/10/14 07:21:31;;;;;;;9.82;2.67;;;16.80;99.90;;;16.85;100.00;96715.34;5006141;28;20029;-38
2023/10/14 07:24:05;;;;;;;6.68;2.33;;;17.00;99.90;;;16.98;100.00;96706.34;5008409;28;20128;-38
2023/10/14 07:26:36;;;;;;;5.72;2.80;;;17.20;99.90;;;17.14;100.00;96707.88;5007133;28;20120;-38
2023/10/14 07:29:05;;;;;;;6.43;2.72;;;17.30;99.90;;;17.25;100.00;96707.06;5008934;28;20128;-38
2023/10/14 07:31:31;;;;;;;6.07;2.20;;;17.40;99.90;;;17.36;100.00;96707.94;5001919;28;20040;-40
2023/10/14 07:34:19;;;;;;;9.13;2.30;;;17.40;99.90;;;17.35;100.00;96708.94;4998381;28;20034;-38
2023/10/14 07:36:44;;;;;;;5.25;2.20;;;17.50;99.90;;;17.30;100.00;96703.09;5005481;28;20349;-38
2023/10/14 07:39:28;;;;;;;4.25;2.03;;;17.40;99.90;;;17.28;100.00;96705.03;5001845;28;20034;-38
2023/10/14 07:41:55;;;;;;;4.38;2.00;;;17.40;99.90;;;17.27;100.00;96711.31;5004775;28;20030;-36
2023/10/14 07:44:24;;;;;;;3.33;1.80;;;17.30;99.90;;;17.25;100.00;96707.06;5001957;28;20144;-36
2023/10/14 07:46:50;;;;;;;8.50;2.10;;;17.30;99.90;;;17.32;100.00;96711.81;5003803;28;20030;-35
2023/10/14 07:49:16;;;;;;;6.88;1.95;;;17.40;99.90;;;17.30;100.00;96704.88;4997232;28;20034;-36
2023/10/14 07:51:42;;;;;;;2.80;1.90;;;17.40;99.90;;;17.32;100.00;96711.81;5006136;28;20083;-36
2023/10/14 07:54:08;;;;;;;4.82;1.73;;;17.40;99.90;;;17.31;100.00;96712.78;5002321;28;20373;-35
2023/10/14 07:56:34;;;;;;;5.43;2.15;;;17.40;99.90;;;17.26;100.00;96717.59;5004034;28;20482;-36
2023/10/14 07:59:01;;;;;;;5.57;2.00;;;17.30;99.90;;;17.26;100.00;96711.41;5000539;28;20113;-36
2023/10/14 08:01:27;;;;;;;5.55;2.10;;;17.40;99.90;;;17.23;100.00;96707.19;5002016;28;20026;-35
2023/10/14 08:03:57;;;;;;;7.05;2.28;;;17.40;99.90;;;17.28;100.00;96707.69;4987393;28;20490;-37
2023/10/14 08:06:22;;;;;;;5.07;2.03;;;17.40;99.90;;;17.34;100.00;96723.22;5001801;28;20471;-36
2023/10/14 08:08:50;;;;;;;4.95;1.75;;;17.40;99.90;;;17.41;100.00;96723.59;4997719;28;20315;-37
2023/10/14 08:11:16;;;;;;;4.70;1.52;;;17.50;99.90;;;17.51;100.00;96724.59;4994959;28;20121;-37
2023/10/14 08:13:43;;;;;;;8.02;1.92;;;17.60;99.90;;;17.65;100.00;96736.88;4999669;28;20037;-37
2023/10/14 08:16:11;;;;;;;5.03;1.90;;;17.80;99.90;;;17.81;100.00;96728.56;4992226;28;20053;-37
2023/10/14 08:18:41;;;;;;;4.32;2.03;;;17.90;99.90;;;17.95;100.00;96740.03;4996914;28;20132;-38
2023/10/14 08:21:09;;;;;;;5.30;1.90;;;18.10;99.90;;;18.09;100.00;96740.66;4999129;28;20045;-37
2023/10/14 08:23:35;;;;;;;3.15;1.40;;;18.20;99.90;;;18.26;100.00;96744.66;4997047;28;20072;-37
2023/10/14 08:26:02;;;;;;;4.05;1.48;;;18.40;99.90;;;18.33;100.00;96737.03;4997165;28;20026;-37
2023/10/14 08:28:28;;;;;;;4.90;1.65;;;18.50;99.90;;;18.48;100.00;96735.81;4998944;28;20037;-37
2023/10/14 08:30:57;;;;;;;6.00;1.63;;;18.60;99.90;;;18.65;100.00;96739.81;5004518;28;20034;-37
2023/10/14 08:33:25;;;;;;;2.72;1.10;;;18.80;99.90;;;18.76;100.00;96744.28;4989717;28;20034;-36
2023/10/14 08:35:52;;;;;;;2.85;1.58;;;19.00;99.90;;;18.83;100.00;96729.50;4989728;28;20297;-37
2023/10/14 08:38:22;;;;;;;3.13;1.30;;;19.00;99.90;;;18.82;100.00;96738.47;4990038;28;20601;-37
2023/10/14 08:40:55;;;;;;;5.05;1.33;;;19.00;99.90;;;18.75;100.00;96721.19;5002895;28;20121;-37
2023/10/14 08:43:25;;;;;;;3.40;1.40;;;19.00;99.90;;;18.91;100.00;96741.38;4995105;28;20121;-37
2023/10/14 08:45:53;;;;;;;3.28;1.10;;;19.10;99.90;;;18.96;100.00;96736.50;4996652;28;20240;-38
2023/10/14 08:48:24;;;;;;;4.35;1.25;;;19.20;99.90;;;19.06;100.00;96732.97;4998234;28;20381;-37
2023/10/14 08:50:56;;;;;;;4.10;1.60;;;19.30;99.90;;;19.15;100.00;96730.50;4999030;28;20038;-37
2023/10/14 08:53:24;;;;;;;2.63;1.30;;;19.30;99.90;;;19.24;100.00;96738.63;4996713;28;20034;-37
2023/10/14 08:55:53;;;;;;;1.92;1.10;;;19.50;99.90;;;19.26;100.00;96731.31;5000296;28;20402;-37
2023/10/14 08:58:22;;;;;;;1.65;1.20;;;19.50;99.90;;;19.35;100.00;96743.06;4999823;28;20048;-39
2023/10/14 09:00:50;;;;;;;5.13;1.20;;;19.50;99.90;;;19.28;100.00;96741.88;4996256;28;20488;-38
2023/10/14 09:03:16;;;;;;;4.45;1.20;;;19.60;99.90;;;19.32;100.00;96754.00;4995387;28;20064;-37
2023/10/14 09:05:46;;;;;;;3.85;1.15;;;19.70;99.90;;;19.57;100.00;96768.88;4996529;28;20124;-37
2023/10/14 09:08:14;;;;;;;2.90;1.25;;;19.90;99.90;;;19.62;100.00;96777.38;5002239;28;20156;-37
2023/10/14 09:10:42;;;;;;;1.80;0.70;;;19.90;99.90;;;19.33;100.00;96768.25;5003050;28;20575;-37
2023/10/14 09:13:13;;;;;;;0.80;0.60;;;19.70;99.90;;;18.76;100.00;96780.84;4998737;28;20052;-37
2023/10/14 09:15:43;;;;;;;0.95;0.70;;;19.20;99.90;;;18.21;100.00;96807.38;5005462;28;20030;-37
2023/10/14 09:18:14;;;;;;;4.95;0.95;;;18.70;99.90;;;17.85;100.00;96802.06;5004551;28;20044;-37
2023/10/14 09:20:41;;;;;;;0.50;0.43;;;18.20;99.90;;;17.32;100.00;96831.75;4996359;28;20091;-37
2023/10/14 09:23:29;;;;;;;3.03;0.60;;;17.80;99.90;;;16.63;100.00;96825.16;5001724;28;20117;-37
2023/10/14 09:25:58;;;;;;;2.28;0.65;;;17.10;99.90;;;16.05;100.00;96811.44;4998274;28;20152;-37
2023/10/14 09:28:28;;;;;;;2.30;1.00;;;16.50;99.90;;;15.63;100.00;96796.44;5013583;28;20088;-37
2023/10/14 09:30:56;;;;;;;5.75;1.00;;;16.10;99.90;;;15.50;100.00;96811.50;4991074;28;20113;-37
2023/10/14 09:33:31;;;;;;;1.25;1.00;;;15.70;99.90;;;15.38;100.00;96818.47;4994870;28;20077;-37
2023/10/14 09:36:11;;;;;;;2.47;1.10;;;15.60;99.90;;;15.28;100.00;96823.53;5002614;28;20025;-37
2023/10/14 09:38:38;;;;;;;4.93;1.27;;;15.50;99.90;;;15.26;100.00;96824.59;4997670;28;20061;-37
2023/10/14 09:41:10;;;;;;;1.10;1.00;;;15.40;99.90;;;15.14;100.00;96833.34;4996972;28;20698;-37
2023/10/14 09:43:42;;;;;;;2.72;1.10;;;15.40;99.90;;;15.09;100.00;96830.97;4997543;28;20042;-37
2023/10/14 09:46:11;;;;;;;2.42;1.33;;;15.30;99.90;;;15.17;100.00;96831.34;4993368;28;20040;-37
2023/10/14 09:48:38;;;;;;;1.63;1.50;;;15.30;99.90;;;15.13;100.00;96832.50;5001589;28;20148;-37
2023/10/14 09:51:06;;;;;;;3.25;1.30;;;15.30;99.90;;;15.12;100.00;96824.63;4999838;28;20260;-38
2023/10/14 09:53:34;;;;;;;1.67;0.90;;;15.30;99.90;;;15.05;100.00;96830.31;4993203;28;20117;-37
2023/10/14 09:56:07;;;;;;;1.33;0.93;;;15.30;99.90;;;15.06;100.00;96831.19;4996684;28;20129;-37
2023/10/14 09:58:41;;;;;;;1.00;0.88;;;15.30;99.90;;;15.24;100.00;96826.50;4998371;28;20524;-37
2023/10/14 10:01:11;;;;;;;0.88;0.88;;;15.40;99.90;;;15.33;100.00;96827.72;5001493;28;20500;-37
2023/10/14 10:03:51;;;;;;;0.70;0.70;;;15.60;99.90;;;15.56;100.00;96834.16;4983244;28;20042;-38
2023/10/14 10:06:23;;;;;;;2.25;0.88;;;15.80;99.90;;;15.71;100.00;96832.28;4971293;28;20034;-38
2023/10/14 10:09:21;;;;;;;0.80;0.80;;;16.00;99.90;;;15.90;100.00;96829.28;4998408;28;20042;-37
2023/10/14 10:11:53;;;;;;;1.55;0.90;;;16.10;99.90;;;15.84;100.00;96817.25;4989730;28;20220;-37
2023/10/14 10:14:24;;;;;;;0.52;0.52;;;16.20;99.90;;;15.84;100.00;96825.22;4992272;28;20038;-37
2023/10/14 10:16:57;;;;;;;1.33;0.70;;;16.20;99.90;;;15.89;100.00;96835.56;4996912;28;20038;-37
2023/10/14 10:19:23;;;;;;;0.80;0.50;;;16.30;99.90;;;16.01;100.00;96830.25;4993633;28;20032;-38
2023/10/14 10:22:13;;;;;;;1.45;0.80;;;16.30;99.90;;;16.14;100.00;96824.94;4979214;28;20026;-38
2023/10/14 10:24:42;;;;;;;1.17;0.60;;;16.50;99.90;;;16.14;100.00;96840.06;4994279;28;20067;-37
2023/10/14 10:27:10;;;;;;;1.48;0.50;;;16.60;99.90;;;16.15;100.00;96834.66;4984569;28;20120;-37
2023/10/14 10:29:51;;;;;;;2.75;0.73;;;16.60;99.90;;;16.34;100.00;96831.56;4991673;28;20140;-37
2023/10/14 10:32:24;;;;;;;1.30;0.60;;;16.70;99.90;;;16.25;100.00;96821.56;4994875;28;20025;-38
2023/10/14 10:35:13;;;;;;;1.15;0.90;;;16.70;99.90;;;16.32;100.00;96833.47;5001088;28;20029;-37
2023/10/14 10:37:51;;;;;;;0.93;0.60;;;16.70;99.90;;;16.28;100.00;96839.13;4997692;28;20033;-38
2023/10/14 10:40:22;;;;;;;1.75;0.60;;;16.70;99.90;;;16.15;100.00;96837.31;4999912;28;20112;-37
2023/10/14 10:43:06;;;;;;;2.00;0.57;;;16.60;99.90;;;15.99;100.00;96836.66;4999676;28;20038;-37
2023/10/14 10:45:40;;;;;;;1.77;0.65;;;16.50;99.90;;;15.98;100.00;96838.44;4988412;28;20048;-36
2023/10/14 10:48:10;;;;;;;1.35;0.65;;;16.30;99.90;;;16.03;100.00;96838.97;4986332;28;20672;-36
2023/10/14 10:50:38;;;;;;;1.48;0.95;;;16.30;99.90;;;16.15;100.00;96836.44;4985355;28;20111;-36
2023/10/14 10:53:10;;;;;;;2.30;0.70;;;16.40;99.90;;;16.12;100.00;96837.50;4987615;28;20044;-36
2023/10/14 10:55:39;;;;;;;4.03;0.98;;;16.40;99.90;;;16.13;100.00;96833.03;4992077;28;20040;-36
2023/10/14 10:58:07;;;;;;;1.77;0.60;;;16.40;99.90;;;16.02;100.00;96837.28;4988417;28;20509;-36
2023/10/14 11:00:34;;;;;;;0.82;0.70;;;16.40;99.90;;;15.98;100.00;96829.63;4977829;28;20083;-36
2023/10/14 11:03:02;;;;;;;1.45;0.88;;;16.30;99.90;;;16.01;100.00;96829.41;4986706;28;20038;-38
2023/10/14 11:05:29;;;;;;;1.50;0.80;;;16.30;99.90;;;15.98;100.00;96834.94;4985654;28;20051;-37
2023/10/14 11:07:57;;;;;;;2.58;0.63;;;16.30;99.90;;;15.93;100.00;96837.06;4981893;28;23309;-37
2023/10/14 11:10:26;;;;;;;4.57;0.80;;;16.20;99.90;;;15.72;100.00;96840.19;4986005;28;20124;-37